This is the latest recevied weather packets stored in our database for station/object YO7ZRO-13. If no packets are shown the sender has not sent any weather packets the latest 10 day(s).
| Time | Temp. | Humidity | Pressure | Rain* | Wind** | Luminosity | Snow |
|---|---|---|---|---|---|---|---|
| 1787907341 | 30.56° C | 31% | 1018.9 hPa | - | - | - | - |
| 1787907282 | 30° C | 31% | 1018.9 hPa | - | - | - | - |
| 1787907221 | 30° C | 31% | 1018.9 hPa | - | - | - | - |
| 1787907161 | 29.44° C | 33% | 1018.9 hPa | - | - | - | - |
| 1787907102 | 29.44° C | 33% | 1018.9 hPa | - | - | - | - |
| 1787907041 | 30° C | 32% | 1018.9 hPa | - | - | - | - |
| 1787906983 | 30° C | 32% | 1018.9 hPa | - | - | - | - |
| 1787906921 | 28.89° C | 34% | 1019 hPa | - | - | - | - |
| 1787906863 | 28.89° C | 34% | 1019 hPa | - | - | - | - |
| 1787906802 | 28.33° C | 35% | 1019 hPa | - | - | - | - |
| 1787906741 | 28.33° C | 35% | 1019 hPa | - | - | - | - |
| 1787906682 | 27.78° C | 35% | 1019.2 hPa | - | - | - | - |
| 1787906621 | 27.78° C | 35% | 1019.2 hPa | - | - | - | - |
| 1787906561 | 28.33° C | 35% | 1019 hPa | - | - | - | - |
| 1787906501 | 28.33° C | 35% | 1019 hPa | - | - | - | - |
| 1787906441 | 28.33° C | 35% | 1019.1 hPa | - | - | - | - |
| 1787906381 | 28.33° C | 35% | 1019.1 hPa | - | - | - | - |
| 1787906321 | 27.78° C | 36% | 1019.3 hPa | - | - | - | - |
| 1787906261 | 27.78° C | 36% | 1019.3 hPa | - | - | - | - |
| 1787906201 | 28.33° C | 34% | 1019.1 hPa | - | - | - | - |
| 1787906141 | 28.33° C | 34% | 1019.1 hPa | - | - | - | - |
| 1787906081 | 28.89° C | 34% | 1019.1 hPa | - | - | - | - |
| 1787906022 | 28.89° C | 34% | 1019.1 hPa | - | - | - | - |
| 1787905961 | 28.89° C | 33% | 1019.1 hPa | - | - | - | - |
| 1787905902 | 28.89° C | 33% | 1019.1 hPa | - | - | - | - |
* Rain since midnight (hover to see other rain measurements)
** Current wind speed in m/s (hover to see current wind gust speed)